createdAt,value
2023-11-01T00:01:12.419Z,98704.84
2023-11-01T00:03:39.504Z,98718.97
2023-11-01T00:06:07.192Z,98696.91
2023-11-01T00:08:34.337Z,98706.19
2023-11-01T00:11:01.430Z,98717.09
2023-11-01T00:13:28.431Z,98708.69
2023-11-01T00:15:55.275Z,98706.44
2023-11-01T00:18:22.567Z,98709.66
2023-11-01T00:20:49.524Z,98680.09
2023-11-01T00:23:16.589Z,98704.13
2023-11-01T00:25:43.609Z,98695.63
2023-11-01T00:28:10.653Z,98716.44
2023-11-01T00:30:37.616Z,98710.09
2023-11-01T00:33:04.819Z,98716.28
2023-11-01T00:35:32.073Z,98732.63
2023-11-01T00:37:59.159Z,98734.50
2023-11-01T00:40:26.160Z,98725.81
2023-11-01T00:42:53.230Z,98729.56
2023-11-01T00:45:20.161Z,98737.41
2023-11-01T00:47:47.101Z,98735.88
2023-11-01T00:50:14.203Z,98733.53
2023-11-01T00:52:41.428Z,98720.69
2023-11-01T00:55:08.843Z,98734.47
2023-11-01T00:57:36.000Z,98721.66
2023-11-01T01:00:03.292Z,98745.28
2023-11-01T01:02:30.450Z,98735.44
2023-11-01T01:04:57.845Z,98737.69
2023-11-01T01:07:24.766Z,98742.69
2023-11-01T01:09:51.918Z,98737.16
2023-11-01T01:12:18.765Z,98740.38
2023-11-01T01:14:45.657Z,98763.16
2023-11-01T01:17:12.718Z,98777.63
2023-11-01T01:19:39.708Z,98778.06
2023-11-01T01:22:06.713Z,98775.75
2023-11-01T01:24:33.921Z,98785.38
2023-11-01T01:27:00.886Z,98788.59
2023-11-01T01:29:27.863Z,98790.22
2023-11-01T01:31:54.748Z,98784.09
2023-11-01T01:34:21.727Z,98802.06
2023-11-01T01:36:48.616Z,98805.28
2023-11-01T01:39:16.175Z,98819.03
2023-11-01T01:41:43.120Z,98816.94
2023-11-01T01:44:10.155Z,98819.06
2023-11-01T01:46:37.192Z,98799.19
2023-11-01T01:49:04.572Z,98825.00
2023-11-01T01:51:32.038Z,98824.44
2023-11-01T01:53:59.258Z,98822.22
2023-11-01T01:56:26.884Z,98840.38
2023-11-01T01:58:54.247Z,98843.34
2023-11-01T02:01:34.712Z,98829.91
2023-11-01T02:04:06.058Z,98857.16
2023-11-01T02:06:33.122Z,98852.88
2023-11-01T02:09:00.417Z,98855.34
2023-11-01T02:11:27.308Z,98826.16
2023-11-01T02:13:54.532Z,98833.41
2023-11-01T02:16:21.446Z,98856.03
2023-11-01T02:18:48.434Z,98862.47
2023-11-01T02:21:15.570Z,98871.59
2023-11-01T02:23:44.651Z,98869.06
2023-11-01T02:26:11.870Z,98881.97
2023-11-01T02:28:38.808Z,98877.97
2023-11-01T02:31:06.477Z,98884.75
2023-11-01T02:33:33.339Z,98895.59
2023-11-01T02:36:00.121Z,98906.63
2023-11-01T02:38:27.355Z,98915.13
2023-11-01T02:40:54.249Z,98907.19
2023-11-01T02:43:21.200Z,98908.75
2023-11-01T02:45:48.960Z,98893.91
2023-11-01T02:48:15.935Z,98923.16
2023-11-01T02:50:42.791Z,98920.69
2023-11-01T02:53:09.877Z,98914.56
2023-11-01T02:55:36.719Z,98915.16
2023-11-01T02:58:04.475Z,98911.22
2023-11-01T03:00:32.006Z,98925.09
2023-11-01T03:02:59.247Z,98919.03
2023-11-01T03:05:28.481Z,98925.84
2023-11-01T03:07:55.597Z,98935.00
2023-11-01T03:10:22.446Z,98934.63
2023-11-01T03:12:49.476Z,98923.88
2023-11-01T03:15:16.431Z,98938.88
2023-11-01T03:17:43.884Z,98929.72
2023-11-01T03:20:12.459Z,98934.06
2023-11-01T03:22:40.885Z,98934.34
2023-11-01T03:25:09.823Z,98913.41
2023-11-01T03:27:36.819Z,98922.09
2023-11-01T03:30:04.080Z,98928.97
2023-11-01T03:32:31.220Z,98917.81
2023-11-01T03:34:59.218Z,98920.94
2023-11-01T03:37:27.107Z,98932.94
2023-11-01T03:39:54.234Z,98939.38
2023-11-01T03:42:22.422Z,98932.50
2023-11-01T03:44:52.517Z,98908.97
2023-11-01T03:47:19.518Z,98898.56
2023-11-01T03:49:46.531Z,98927.97
2023-11-01T03:52:13.638Z,98927.63
2023-11-01T03:54:40.653Z,98908.63
2023-11-01T03:57:07.719Z,98901.75
2023-11-01T03:59:35.089Z,98914.53
2023-11-01T04:02:02.183Z,98911.84
2023-11-01T04:04:29.681Z,98906.06
2023-11-01T04:06:56.743Z,98907.50
2023-11-01T04:09:23.906Z,98925.06
2023-11-01T04:11:50.963Z,98925.78
2023-11-01T04:14:18.526Z,98911.66
2023-11-01T04:16:45.618Z,98909.41
2023-11-01T04:19:13.042Z,98919.00
2023-11-01T04:21:40.030Z,98920.16
2023-11-01T04:24:11.422Z,98922.94
2023-11-01T04:26:38.743Z,98920.44
2023-11-01T04:29:05.947Z,98927.69
2023-11-01T04:31:33.184Z,98933.69
2023-11-01T04:34:00.429Z,98921.75
2023-11-01T04:36:27.438Z,98928.56
2023-11-01T04:38:54.842Z,98925.50
2023-11-01T04:41:22.265Z,98914.75
2023-11-01T04:43:49.333Z,98931.50
2023-11-01T04:46:16.603Z,98922.06
2023-11-01T04:48:43.877Z,98926.91
2023-11-01T04:51:11.230Z,98932.75
2023-11-01T04:53:39.118Z,98936.41
2023-11-01T04:56:07.562Z,98922.34
2023-11-01T04:58:36.731Z,98931.72
2023-11-01T05:01:06.731Z,98940.59
2023-11-01T05:03:36.573Z,98919.16
2023-11-01T05:06:04.709Z,98946.72
2023-11-01T05:08:31.813Z,98946.09
2023-11-01T05:10:59.120Z,98955.09
2023-11-01T05:13:26.280Z,98958.22
2023-11-01T05:15:53.424Z,98941.03
2023-11-01T05:18:20.303Z,98952.31
2023-11-01T05:20:47.642Z,98953.56
2023-11-01T05:23:14.683Z,98960.63
2023-11-01T05:25:41.871Z,98964.13
2023-11-01T05:28:09.090Z,98969.84
2023-11-01T05:30:36.098Z,98976.66
2023-11-01T05:33:03.444Z,98971.91
2023-11-01T05:35:30.729Z,98953.19
2023-11-01T05:37:58.213Z,98955.53
2023-11-01T05:40:25.554Z,98970.47
2023-11-01T05:42:52.492Z,98971.34
2023-11-01T05:45:21.791Z,98948.88
2023-11-01T05:47:53.869Z,98984.97
2023-11-01T05:50:26.882Z,98988.72
2023-11-01T05:52:57.013Z,98994.00
2023-11-01T05:55:33.124Z,99010.66
2023-11-01T05:58:09.395Z,99005.47
2023-11-01T06:00:37.456Z,99010.72
2023-11-01T06:03:08.472Z,99003.72
2023-11-01T06:05:37.691Z,99021.13
2023-11-01T06:08:05.282Z,99023.78
2023-11-01T06:10:32.180Z,99035.91
2023-11-01T06:12:59.838Z,99039.09
2023-11-01T06:15:26.960Z,99029.31
2023-11-01T06:17:54.404Z,99024.56
2023-11-01T06:20:21.533Z,99029.75
2023-11-01T06:22:48.590Z,99032.59
2023-11-01T06:25:18.403Z,99028.00
2023-11-01T06:27:45.452Z,99022.72
2023-11-01T06:30:12.872Z,99023.75
2023-11-01T06:32:39.994Z,99006.47
2023-11-01T06:35:07.621Z,99022.13
2023-11-01T06:37:34.853Z,99028.22
2023-11-01T06:40:06.743Z,99030.25
2023-11-01T06:42:33.715Z,99031.88
2023-11-01T06:45:00.818Z,99029.09
2023-11-01T06:47:27.731Z,99011.44
2023-11-01T06:49:54.827Z,99023.53
2023-11-01T06:52:21.758Z,99030.31
2023-11-01T06:54:48.825Z,99031.78
2023-11-01T06:57:15.914Z,99039.38
2023-11-01T06:59:43.306Z,99036.97
2023-11-01T07:02:10.727Z,99040.28
2023-11-01T07:04:37.770Z,99046.28
2023-11-01T07:07:05.048Z,99046.78
2023-11-01T07:09:33.074Z,99025.19
2023-11-01T07:12:00.906Z,99041.00
2023-11-01T07:14:28.127Z,99062.06
2023-11-01T07:16:55.049Z,99055.28
2023-11-01T07:19:21.911Z,99036.09
2023-11-01T07:21:49.155Z,99065.84
2023-11-01T07:24:15.963Z,99067.63
2023-11-01T07:26:43.249Z,99062.44
2023-11-01T07:29:10.790Z,99068.47
2023-11-01T07:31:38.024Z,99035.44
2023-11-01T07:34:05.037Z,99066.78
2023-11-01T07:36:32.396Z,99071.69
2023-11-01T07:38:59.347Z,99086.94
2023-11-01T07:41:26.464Z,99091.81
2023-11-01T07:43:53.778Z,99084.28
2023-11-01T07:46:20.889Z,99089.16
2023-11-01T07:48:48.479Z,99079.44
2023-11-01T07:51:15.462Z,99083.84
2023-11-01T07:53:42.633Z,99071.38
2023-11-01T07:56:09.765Z,99082.78
2023-11-01T07:58:36.902Z,99078.81
2023-11-01T08:01:04.671Z,99076.63
2023-11-01T08:03:32.741Z,99051.03
2023-11-01T08:06:00.164Z,99088.78
2023-11-01T08:08:27.190Z,99088.56
2023-11-01T08:10:54.601Z,99105.72
2023-11-01T08:13:21.534Z,99101.72
2023-11-01T08:15:48.746Z,99097.78
2023-11-01T08:18:16.570Z,99062.94
2023-11-01T08:20:44.117Z,99094.84
2023-11-01T08:23:11.181Z,99104.44
2023-11-01T08:25:38.652Z,99106.69
2023-11-01T08:28:06.000Z,99102.84
2023-11-01T08:30:32.862Z,99105.03
2023-11-01T08:32:59.953Z,99099.19
2023-11-01T08:35:27.214Z,99070.72
2023-11-01T08:37:54.469Z,99096.56
2023-11-01T08:40:21.442Z,99090.34
2023-11-01T08:42:48.527Z,99102.91
2023-11-01T08:45:16.110Z,99096.97
2023-11-01T08:47:45.871Z,99095.13
2023-11-01T08:50:14.739Z,99102.84
2023-11-01T08:52:44.335Z,99102.84
2023-11-01T08:55:15.703Z,99102.09
2023-11-01T08:57:43.790Z,99102.16
2023-11-01T09:00:11.678Z,99096.91
2023-11-01T09:02:38.914Z,99107.88
2023-11-01T09:05:06.097Z,99119.16
2023-11-01T09:07:33.135Z,99114.28
2023-11-01T09:10:02.046Z,99122.19
2023-11-01T09:12:30.083Z,99102.84
2023-11-01T09:14:57.121Z,99122.81
2023-11-01T09:17:24.495Z,99116.19
2023-11-01T09:19:52.163Z,99109.50
2023-11-01T09:22:19.401Z,99122.97
2023-11-01T09:24:46.860Z,99119.41
2023-11-01T09:27:13.841Z,99131.75
2023-11-01T09:29:40.838Z,99126.59
2023-11-01T09:32:08.425Z,99108.56
2023-11-01T09:34:35.845Z,99122.75
2023-11-01T09:37:03.229Z,99117.66
2023-11-01T09:39:31.814Z,99114.88
2023-11-01T09:42:06.900Z,99112.59
2023-11-01T09:44:34.584Z,99116.25
2023-11-01T09:47:01.589Z,99127.00
2023-11-01T09:49:31.960Z,99132.97
2023-11-01T09:52:01.649Z,99113.47
2023-11-01T09:54:28.813Z,99114.09
2023-11-01T09:56:57.990Z,99122.00
2023-11-01T09:59:26.081Z,99114.47
2023-11-01T10:01:53.391Z,99122.50
2023-11-01T10:04:20.934Z,99095.59
2023-11-01T10:06:48.335Z,99095.72
2023-11-01T10:09:15.335Z,99093.28
2023-11-01T10:11:43.685Z,99104.63
2023-11-01T10:14:10.898Z,99102.09
2023-11-01T10:16:40.271Z,99106.91
2023-11-01T10:19:08.181Z,99114.72
2023-11-01T10:21:35.234Z,99113.84
2023-11-01T10:24:04.512Z,99109.09
2023-11-01T10:26:32.435Z,99098.59
2023-11-01T10:29:01.035Z,99114.84
2023-11-01T10:31:28.035Z,99114.78
2023-11-01T10:33:55.843Z,99103.97
2023-11-01T10:36:22.973Z,99119.19
2023-11-01T10:38:52.835Z,99107.16
2023-11-01T10:41:20.730Z,99107.41
2023-11-01T10:43:52.074Z,99108.28
2023-11-01T10:46:20.870Z,99102.78
2023-11-01T10:48:48.582Z,99111.31
2023-11-01T10:51:16.040Z,99110.94
2023-11-01T10:53:43.723Z,99097.91
2023-11-01T10:56:11.251Z,99109.25
2023-11-01T10:58:43.805Z,99102.09
2023-11-01T11:01:25.759Z,99098.97
2023-11-01T11:04:28.052Z,99104.19
2023-11-01T11:07:24.230Z,99105.47
2023-11-01T11:10:27.911Z,99101.75
2023-11-01T11:13:10.454Z,99098.34
2023-11-01T11:15:50.074Z,99097.56
2023-11-01T11:18:25.645Z,99079.91
2023-11-01T11:20:53.998Z,99100.09
2023-11-01T11:23:32.700Z,99096.44
2023-11-01T11:26:01.498Z,99101.63
2023-11-01T11:28:39.478Z,99094.41
2023-11-01T11:31:08.470Z,99093.63
2023-11-01T11:33:50.868Z,99089.28
2023-11-01T11:36:19.980Z,99094.50
2023-11-01T11:38:54.094Z,99094.53
2023-11-01T11:41:30.037Z,99036.63
2023-11-01T11:44:13.726Z,99102.72
2023-11-01T11:46:46.447Z,99098.34
2023-11-01T11:49:30.300Z,99101.94
2023-11-01T11:52:08.618Z,99100.16
2023-11-01T11:54:36.231Z,99066.00
2023-11-01T11:57:10.019Z,99099.16
2023-11-01T11:59:37.678Z,99099.97
2023-11-01T12:02:11.414Z,99090.00
2023-11-01T12:04:41.475Z,99093.25
2023-11-01T12:07:09.216Z,99093.69
2023-11-01T12:09:36.264Z,99104.56
2023-11-01T12:12:14.589Z,99086.25
2023-11-01T12:14:42.333Z,99071.72
2023-11-01T12:17:09.646Z,99095.06
2023-11-01T12:19:48.224Z,99106.13
2023-11-01T12:22:16.987Z,99084.13
2023-11-01T12:24:47.909Z,99058.97
2023-11-01T12:27:16.660Z,99064.56
2023-11-01T12:29:47.762Z,99094.63
2023-11-01T12:32:28.826Z,99086.25
2023-11-01T12:34:59.029Z,99092.25
2023-11-01T12:37:31.362Z,99099.53
2023-11-01T12:40:12.272Z,99106.31
2023-11-01T12:42:47.690Z,99095.13
2023-11-01T12:45:16.308Z,99085.38
2023-11-01T12:47:43.406Z,99099.78
2023-11-01T12:50:12.225Z,99083.72
2023-11-01T12:52:41.067Z,99072.41
2023-11-01T12:55:09.958Z,99088.56
2023-11-01T12:57:43.855Z,99099.50
2023-11-01T13:00:15.107Z,99103.50
2023-11-01T13:02:42.447Z,99106.13
2023-11-01T13:05:10.211Z,99097.84
2023-11-01T13:07:37.609Z,99109.28
2023-11-01T13:10:04.974Z,99113.63
2023-11-01T13:12:32.932Z,99097.91
2023-11-01T13:14:59.957Z,99104.28
2023-11-01T13:17:27.567Z,99103.88
2023-11-01T13:19:57.063Z,99101.88
2023-11-01T13:22:25.457Z,99105.94
2023-11-01T13:24:52.408Z,99095.94
2023-11-01T13:27:19.631Z,99090.59
2023-11-01T13:29:49.545Z,99110.56
2023-11-01T13:32:16.765Z,99108.22
2023-11-01T13:34:44.880Z,99085.44
2023-11-01T13:37:13.869Z,99101.25
2023-11-01T13:39:40.766Z,99096.09
2023-11-01T13:42:08.420Z,99094.84
2023-11-01T13:44:35.866Z,99072.91
2023-11-01T13:47:03.027Z,99101.44
2023-11-01T13:49:30.185Z,99099.81
2023-11-01T13:51:57.836Z,99098.06
2023-11-01T13:54:24.739Z,99094.47
2023-11-01T13:56:51.859Z,99091.13
2023-11-01T13:59:18.715Z,99095.94
2023-11-01T14:01:46.203Z,99101.50
2023-11-01T14:04:15.683Z,99093.84
2023-11-01T14:06:42.994Z,99118.59
2023-11-01T14:09:12.709Z,99104.75
2023-11-01T14:11:40.089Z,99102.81
2023-11-01T14:14:07.270Z,99119.06
2023-11-01T14:16:34.214Z,99116.34
2023-11-01T14:19:01.113Z,99111.84
2023-11-01T14:21:28.675Z,99093.94
2023-11-01T14:23:55.855Z,99115.50
2023-11-01T14:26:23.663Z,99111.19
2023-11-01T14:28:50.621Z,99104.75
2023-11-01T14:31:20.653Z,99123.47
2023-11-01T14:33:47.779Z,99109.38
2023-11-01T14:36:14.845Z,99108.19
2023-11-01T14:38:42.024Z,99128.19
2023-11-01T14:41:08.867Z,99117.72
2023-11-01T14:43:35.949Z,99120.09
2023-11-01T14:46:04.718Z,99099.38
2023-11-01T14:48:32.031Z,99127.38
2023-11-01T14:50:59.132Z,99130.13
2023-11-01T14:53:26.078Z,99116.41
2023-11-01T14:55:53.253Z,99135.59
2023-11-01T14:58:20.432Z,99142.28
2023-11-01T15:00:48.209Z,99133.84
2023-11-01T15:03:15.376Z,99136.94
2023-11-01T15:05:43.323Z,99139.19
2023-11-01T15:08:10.277Z,99124.63
2023-11-01T15:10:37.613Z,99121.03
2023-11-01T15:13:04.921Z,99126.97
2023-11-01T15:15:32.519Z,99128.50
2023-11-01T15:17:59.553Z,99126.63
2023-11-01T15:20:27.960Z,99130.78
2023-11-01T15:22:54.917Z,99135.19
2023-11-01T15:25:21.979Z,99126.53
2023-11-01T15:27:50.123Z,99133.72
2023-11-01T15:30:20.369Z,99157.66
2023-11-01T15:32:47.544Z,99151.91
2023-11-01T15:35:14.835Z,99145.69
2023-11-01T15:37:42.411Z,99136.31
2023-11-01T15:40:09.880Z,99155.78
2023-11-01T15:42:37.120Z,99165.28
2023-11-01T15:45:05.384Z,99169.88
2023-11-01T15:47:32.366Z,99166.50
2023-11-01T15:49:59.193Z,99165.47
2023-11-01T15:52:26.198Z,99168.59
2023-11-01T15:54:53.870Z,99182.81
2023-11-01T15:57:23.047Z,99178.69
2023-11-01T15:59:51.398Z,99176.91
2023-11-01T16:02:18.372Z,99176.00
2023-11-01T16:04:45.560Z,99183.47
2023-11-01T16:07:12.747Z,99146.09
2023-11-01T16:09:39.881Z,99164.38
2023-11-01T16:12:07.328Z,99159.59
2023-11-01T16:14:34.636Z,99171.88
2023-11-01T16:17:03.172Z,99162.44
2023-11-01T16:19:30.400Z,99163.47
2023-11-01T16:21:57.318Z,99176.53
2023-11-01T16:24:24.611Z,99183.16
2023-11-01T16:26:51.432Z,99183.06
2023-11-01T16:29:18.471Z,99189.69
2023-11-01T16:31:45.626Z,99180.53
2023-11-01T16:34:12.909Z,99185.19
2023-11-01T16:36:39.953Z,99188.31
2023-11-01T16:39:07.506Z,99171.97
2023-11-01T16:41:35.212Z,99186.09
2023-11-01T16:44:02.300Z,99189.44
2023-11-01T16:46:29.449Z,99190.03
2023-11-01T16:48:56.539Z,99198.22
2023-11-01T16:51:23.524Z,99199.47
2023-11-01T16:53:50.842Z,99198.94
2023-11-01T16:56:18.883Z,99199.19
2023-11-01T16:58:46.066Z,99202.56
2023-11-01T17:01:12.901Z,99203.16
2023-11-01T17:03:39.941Z,99195.88
2023-11-01T17:06:07.706Z,99199.53
2023-11-01T17:08:34.832Z,99207.22
2023-11-01T17:11:01.924Z,99207.47
2023-11-01T17:13:28.913Z,99210.97
2023-11-01T17:15:57.377Z,99216.63
2023-11-01T17:18:25.137Z,99209.72
2023-11-01T17:20:53.356Z,99201.88
2023-11-01T17:23:20.431Z,99207.31
2023-11-01T17:25:50.514Z,99203.75
2023-11-01T17:28:21.937Z,99204.91
2023-11-01T17:30:49.334Z,99211.94
2023-11-01T17:33:16.640Z,99221.88
2023-11-01T17:35:43.826Z,99215.06
2023-11-01T17:38:41.792Z,99239.09
2023-11-01T17:41:10.309Z,99236.88
2023-11-01T17:43:52.167Z,99243.09
2023-11-01T17:46:19.568Z,99264.75
2023-11-01T17:48:47.471Z,99279.63
2023-11-01T17:51:15.247Z,99276.69
2023-11-01T17:53:42.220Z,99262.81
2023-11-01T17:56:09.677Z,99260.50
2023-11-01T17:58:36.835Z,99253.22
2023-11-01T18:01:05.000Z,99256.88
2023-11-01T18:03:36.600Z,99269.69
2023-11-01T18:06:03.968Z,99276.66
2023-11-01T18:08:34.008Z,99273.41
2023-11-01T18:11:04.555Z,99284.06
2023-11-01T18:13:36.876Z,99286.91
2023-11-01T18:16:06.770Z,99283.19
2023-11-01T18:18:40.277Z,99270.50
2023-11-01T18:21:21.505Z,99272.53
2023-11-01T18:24:04.595Z,99280.75
2023-11-01T18:26:34.287Z,99237.25
2023-11-01T18:29:04.164Z,99285.06
2023-11-01T18:31:37.953Z,99292.94
2023-11-01T18:34:07.670Z,99267.84
2023-11-01T18:36:40.513Z,99277.00
2023-11-01T18:39:12.287Z,99294.19
2023-11-01T18:41:43.955Z,99297.97
2023-11-01T18:44:34.192Z,99302.69
2023-11-01T18:47:01.832Z,99299.81
2023-11-01T18:49:50.464Z,99293.84
2023-11-01T18:52:18.482Z,99276.53
2023-11-01T18:54:47.971Z,99262.28
2023-11-01T18:57:18.195Z,99290.47
2023-11-01T18:59:45.351Z,99287.53
2023-11-01T19:02:34.249Z,99277.13
2023-11-01T19:05:02.315Z,99281.16
2023-11-01T19:07:32.456Z,99253.97
2023-11-01T19:09:59.740Z,99283.78
2023-11-01T19:12:33.778Z,99254.81
2023-11-01T19:15:01.127Z,99264.09
2023-11-01T19:17:33.022Z,99276.28
2023-11-01T19:20:00.264Z,99262.34
2023-11-01T19:22:27.540Z,99264.16
2023-11-01T19:24:54.847Z,99264.66
2023-11-01T19:27:24.185Z,99264.97
2023-11-01T19:29:51.663Z,99267.75
2023-11-01T19:32:18.540Z,99268.72
2023-11-01T19:34:45.501Z,99256.41
2023-11-01T19:37:12.436Z,99252.19
2023-11-01T19:39:39.360Z,99258.22
2023-11-01T19:42:06.745Z,99242.13
2023-11-01T19:44:33.771Z,99263.88
2023-11-01T19:47:00.916Z,99266.13
2023-11-01T19:49:28.511Z,99261.09
2023-11-01T19:51:55.663Z,99258.34
2023-11-01T19:54:22.746Z,99217.16
2023-11-01T19:56:50.104Z,99242.44
2023-11-01T19:59:17.363Z,99248.91
2023-11-01T20:01:44.688Z,99258.97
2023-11-01T20:04:11.565Z,99261.69
2023-11-01T20:06:38.638Z,99257.47
2023-11-01T20:09:08.041Z,99252.59
2023-11-01T20:11:34.933Z,99253.91
2023-11-01T20:14:02.388Z,99244.81
2023-11-01T20:16:31.176Z,99224.88
2023-11-01T20:18:59.567Z,99225.03
2023-11-01T20:21:26.647Z,99235.09
2023-11-01T20:23:54.401Z,99227.97
2023-11-01T20:26:22.072Z,99233.00
2023-11-01T20:28:49.072Z,99224.94
2023-11-01T20:31:15.959Z,99224.59
2023-11-01T20:33:43.030Z,99230.72
2023-11-01T20:36:10.623Z,99229.09
2023-11-01T20:38:39.711Z,99197.78
2023-11-01T20:41:07.338Z,99219.22
2023-11-01T20:43:34.115Z,99223.75
2023-11-01T20:46:00.899Z,99212.56
2023-11-01T20:48:28.051Z,99212.94
2023-11-01T20:50:55.153Z,99214.69
2023-11-01T20:53:30.975Z,99211.16
2023-11-01T20:55:57.991Z,99200.25
2023-11-01T20:58:29.539Z,99200.72
2023-11-01T21:00:59.059Z,99184.50
2023-11-01T21:03:27.991Z,99170.38
2023-11-01T21:05:54.985Z,99196.31
2023-11-01T21:08:22.092Z,99193.25
2023-11-01T21:10:49.150Z,99187.22
2023-11-01T21:13:16.302Z,99194.53
2023-11-01T21:15:43.657Z,99192.09
2023-11-01T21:18:11.809Z,99192.91
2023-11-01T21:20:38.806Z,99190.00
2023-11-01T21:23:05.784Z,99186.09
2023-11-01T21:25:32.948Z,99193.13
2023-11-01T21:28:01.471Z,99187.94
2023-11-01T21:30:28.573Z,99184.03
2023-11-01T21:32:55.653Z,99173.63
2023-11-01T21:35:31.161Z,99175.44
2023-11-01T21:38:04.248Z,99188.56
2023-11-01T21:40:33.223Z,99187.09
2023-11-01T21:43:00.354Z,99164.06
2023-11-01T21:45:40.377Z,99147.38
2023-11-01T21:48:07.415Z,99177.38
2023-11-01T21:50:57.787Z,99160.19
2023-11-01T21:53:27.565Z,99162.94
2023-11-01T21:55:56.007Z,99169.41
2023-11-01T21:58:26.334Z,99156.91
2023-11-01T22:01:05.378Z,99163.78
2023-11-01T22:03:36.030Z,99159.75
2023-11-01T22:06:05.253Z,99153.00
2023-11-01T22:08:53.729Z,99160.13
2023-11-01T22:11:20.943Z,99155.03
2023-11-01T22:13:48.062Z,99164.72
2023-11-01T22:16:35.396Z,99168.25
2023-11-01T22:19:07.024Z,99156.03
2023-11-01T22:21:35.861Z,99165.03
2023-11-01T22:24:04.862Z,99157.16
2023-11-01T22:26:33.394Z,99136.59
2023-11-01T22:29:05.625Z,99150.00
2023-11-01T22:31:53.416Z,99147.72
2023-11-01T22:34:23.446Z,99153.69
2023-11-01T22:36:52.597Z,99156.56
2023-11-01T22:39:41.451Z,99158.19
2023-11-01T22:42:19.165Z,99155.31
2023-11-01T22:44:46.579Z,99143.66
2023-11-01T22:47:14.360Z,99147.72
2023-11-01T22:49:41.856Z,99149.31
2023-11-01T22:52:09.282Z,99130.72
2023-11-01T22:54:36.644Z,99138.03
2023-11-01T22:57:04.062Z,99111.69
2023-11-01T22:59:31.374Z,99127.72
2023-11-01T23:01:58.280Z,99135.22
2023-11-01T23:04:25.600Z,99116.13
2023-11-01T23:06:52.941Z,99121.19
2023-11-01T23:09:20.547Z,99118.13
2023-11-01T23:11:47.755Z,99115.50
2023-11-01T23:14:14.860Z,99126.84
2023-11-01T23:16:42.987Z,99112.75
2023-11-01T23:19:11.777Z,99140.78
2023-11-01T23:21:39.982Z,99132.22
2023-11-01T23:24:11.378Z,99143.06
2023-11-01T23:26:55.408Z,99126.25
2023-11-01T23:29:30.562Z,99129.81
2023-11-01T23:31:58.767Z,99128.69
2023-11-01T23:34:48.565Z,99120.75
2023-11-01T23:37:22.472Z,99124.88
2023-11-01T23:39:51.647Z,99117.13
2023-11-01T23:42:20.533Z,99120.06
2023-11-01T23:44:48.751Z,99121.06
2023-11-01T23:47:45.074Z,99126.72
2023-11-01T23:50:32.885Z,99123.47
2023-11-01T23:53:05.569Z,99105.88
2023-11-01T23:55:33.587Z,99127.44
2023-11-01T23:58:56.660Z,99120.69
